createdAt,value
2019-03-21T00:06:20.414Z,6.30
2019-03-21T00:16:26.831Z,6.40
2019-03-21T00:26:31.470Z,6.50
2019-03-21T00:36:38.578Z,6.60
2019-03-21T00:46:43.030Z,6.60
2019-03-21T00:56:49.062Z,6.70
2019-03-21T01:06:54.133Z,6.60
2019-03-21T01:16:58.516Z,6.30
2019-03-21T01:27:03.128Z,5.70
2019-03-21T01:37:12.985Z,5.40
2019-03-21T01:47:17.291Z,5.20
2019-03-21T01:57:22.341Z,4.80
2019-03-21T02:07:26.705Z,4.50
2019-03-21T02:17:31.120Z,4.20
2019-03-21T02:27:37.059Z,3.90
2019-03-21T02:37:41.789Z,3.60
2019-03-21T02:47:46.250Z,3.50
2019-03-21T02:57:54.226Z,3.40
2019-03-21T03:08:05.150Z,3.30
2019-03-21T03:18:10.107Z,3.10
2019-03-21T03:28:23.670Z,2.90
2019-03-21T03:38:28.211Z,2.80
2019-03-21T03:48:32.896Z,2.70
2019-03-21T03:58:40.547Z,2.60
2019-03-21T04:08:47.272Z,2.50
2019-03-21T04:18:52.015Z,2.40
2019-03-21T04:28:56.747Z,2.20
2019-03-21T04:39:01.432Z,2.30
2019-03-21T04:49:05.830Z,2.20
2019-03-21T04:59:13.608Z,2.00
2019-03-21T05:09:20.410Z,1.90
2019-03-21T05:19:26.616Z,1.80
2019-03-21T05:29:31.593Z,1.80
2019-03-21T05:39:36.487Z,1.80
2019-03-21T05:49:40.909Z,1.70
2019-03-21T05:59:45.325Z,1.90
2019-03-21T06:09:49.736Z,2.30
2019-03-21T06:20:30.914Z,3.30
2019-03-21T06:30:38.025Z,4.50
2019-03-21T06:40:44.969Z,6.10
2019-03-21T06:50:51.200Z,6.70
2019-03-21T07:00:58.386Z,7.40
2019-03-21T07:11:03.972Z,9.10
2019-03-21T07:21:29.339Z,10.30
2019-03-21T07:31:33.516Z,11.70
2019-03-21T07:42:35.884Z,13.30
2019-03-21T07:53:22.113Z,14.50
2019-03-21T08:03:27.067Z,15.40
2019-03-21T08:13:31.468Z,16.70
2019-03-21T08:23:36.093Z,18.00
2019-03-21T08:33:40.503Z,19.10
2019-03-21T08:43:49.361Z,20.20
2019-03-21T08:53:53.765Z,20.30
2019-03-21T09:04:03.902Z,21.30
2019-03-21T09:14:09.011Z,21.70
2019-03-21T09:24:16.759Z,22.30
2019-03-21T09:34:24.738Z,22.60
2019-03-21T09:44:30.396Z,22.80
2019-03-21T09:54:37.200Z,22.30
2019-03-21T10:04:52.708Z,22.30
2019-03-21T10:15:00.259Z,22.70
2019-03-21T10:25:06.980Z,22.70
2019-03-21T10:35:11.493Z,22.70
2019-03-21T10:45:17.122Z,22.50
2019-03-21T10:55:24.826Z,22.60
2019-03-21T11:05:33.539Z,22.50
2019-03-21T11:16:23.827Z,22.30
2019-03-21T11:26:30.913Z,21.90
2019-03-21T11:36:43.116Z,21.50
2019-03-21T11:46:47.900Z,21.20
2019-03-21T11:57:07.885Z,21.00
2019-03-21T12:08:07.550Z,20.60
2019-03-21T12:18:18.019Z,20.30
2019-03-21T12:28:23.358Z,19.90
2019-03-21T12:38:32.250Z,19.70
2019-03-21T12:48:38.926Z,19.00
2019-03-21T12:59:30.743Z,18.00
2019-03-21T13:09:41.788Z,17.50
2019-03-21T13:19:49.293Z,17.10
2019-03-21T13:30:03.874Z,16.90
2019-03-21T13:40:12.571Z,16.70
2019-03-21T13:50:20.176Z,16.70
2019-03-21T14:00:25.055Z,16.60
2019-03-21T14:10:33.926Z,16.50
2019-03-21T14:21:03.429Z,16.40
2019-03-21T14:31:09.427Z,16.30
2019-03-21T14:41:21.529Z,16.20
2019-03-21T14:51:47.086Z,16.10
2019-03-21T15:01:59.179Z,16.00
2019-03-21T15:12:06.090Z,15.80
2019-03-21T15:22:10.557Z,15.80
2019-03-21T15:32:14.992Z,15.60
2019-03-21T15:42:19.708Z,15.50
2019-03-21T15:50:15.269Z,15.40
2019-03-21T15:55:21.413Z,15.30
2019-03-21T16:00:34.324Z,15.30
2019-03-21T16:05:41.020Z,15.20
2019-03-21T16:10:49.496Z,15.20
2019-03-21T16:16:14.114Z,15.10
2019-03-21T16:21:26.695Z,14.90
2019-03-21T16:26:36.519Z,14.80
2019-03-21T16:31:42.652Z,14.60
2019-03-21T16:36:49.982Z,14.50
2019-03-21T16:41:54.254Z,14.30
2019-03-21T16:47:00.508Z,14.10
2019-03-21T16:52:07.702Z,14.00
2019-03-21T16:57:12.197Z,13.90
2019-03-21T17:02:36.984Z,13.80
2019-03-21T17:07:48.947Z,13.50
2019-03-21T17:12:54.028Z,13.40
2019-03-21T17:18:00.599Z,13.20
2019-03-21T17:23:07.096Z,13.10
2019-03-21T17:28:11.465Z,12.90
2019-03-21T17:33:15.792Z,12.70
2019-03-21T17:44:45.438Z,12.20
2019-03-21T17:49:51.206Z,11.80
2019-03-21T17:54:56.987Z,11.50
2019-03-21T18:00:01.394Z,11.20
2019-03-21T18:05:13.883Z,11.00
2019-03-21T18:10:39.045Z,10.80
2019-03-21T18:15:46.552Z,10.60
2019-03-21T18:21:03.349Z,10.40
2019-03-21T18:26:20.135Z,10.20
2019-03-21T18:31:27.607Z,10.10
2019-03-21T18:36:35.329Z,9.90
2019-03-21T18:41:39.613Z,9.70
2019-03-21T18:46:44.562Z,9.50
2019-03-21T18:51:52.216Z,9.40
2019-03-21T18:56:56.534Z,9.20
2019-03-21T19:02:07.359Z,9.00
2019-03-21T19:07:11.684Z,8.80
2019-03-21T19:12:16.165Z,8.70
2019-03-21T19:17:29.806Z,8.50
2019-03-21T19:22:38.135Z,8.40
2019-03-21T19:27:44.344Z,8.30
2019-03-21T19:32:58.072Z,8.20
2019-03-21T19:38:02.530Z,8.10
2019-03-21T19:43:07.513Z,8.00
2019-03-21T19:48:11.937Z,7.90
2019-03-21T19:53:17.064Z,7.80
2019-03-21T19:58:28.174Z,7.70
2019-03-21T20:03:32.185Z,7.60
2019-03-21T20:08:36.606Z,7.40
2019-03-21T20:13:43.799Z,7.40
2019-03-21T20:18:50.672Z,7.30
2019-03-21T20:24:00.385Z,7.30
2019-03-21T20:29:04.786Z,7.20
2019-03-21T20:34:09.346Z,7.10
2019-03-21T20:39:21.263Z,7.00
2019-03-21T20:44:25.955Z,6.90
2019-03-21T20:49:32.236Z,6.80
2019-03-21T20:54:36.821Z,6.70
2019-03-21T20:59:41.831Z,6.70
2019-03-21T21:04:57.593Z,6.60
2019-03-21T21:10:03.533Z,6.40
2019-03-21T21:15:08.441Z,6.30
2019-03-21T21:20:13.002Z,6.20
2019-03-21T21:25:20.720Z,6.20
2019-03-21T21:30:32.489Z,6.10
2019-03-21T21:35:36.899Z,6.00
2019-03-21T21:40:41.615Z,6.00
2019-03-21T21:45:46.490Z,5.90
2019-03-21T21:50:56.929Z,5.90
2019-03-21T21:56:01.542Z,5.90
2019-03-21T22:01:05.987Z,5.80
2019-03-21T22:06:10.596Z,5.70
2019-03-21T22:11:15.257Z,5.60
2019-03-21T22:16:29.717Z,5.60
2019-03-21T22:21:34.323Z,5.60
2019-03-21T22:26:38.863Z,5.60
2019-03-21T22:31:44.923Z,5.50
2019-03-21T22:36:49.844Z,5.50
2019-03-21T22:41:54.588Z,5.40
2019-03-21T22:47:02.899Z,5.30
2019-03-21T22:52:14.250Z,5.30
2019-03-21T22:57:21.386Z,5.20
2019-03-21T23:02:26.063Z,5.10
2019-03-21T23:07:29.985Z,5.00
2019-03-21T23:12:34.322Z,5.00
2019-03-21T23:17:38.924Z,4.90
2019-03-21T23:22:42.239Z,4.90
2019-03-21T23:27:46.944Z,4.90
2019-03-21T23:33:00.875Z,4.80
2019-03-21T23:38:05.279Z,4.70
2019-03-21T23:43:09.941Z,4.70
2019-03-21T23:48:14.766Z,4.60
2019-03-21T23:53:19.121Z,4.60
2019-03-21T23:58:23.418Z,4.60
